sensor_id;sensor_type;location;lat;lon;timestamp;temperature;humidity
18753;DHT22;9505;50.882;5.350;2024-02-26T00:01:41;6.50;99.90
18753;DHT22;9505;50.882;5.350;2024-02-26T00:04:09;6.60;99.90
18753;DHT22;9505;50.882;5.350;2024-02-26T00:06:35;6.60;99.90
18753;DHT22;9505;50.882;5.350;2024-02-26T00:09:00;6.50;99.90
18753;DHT22;9505;50.882;5.350;2024-02-26T00:11:28;6.50;99.90
18753;DHT22;9505;50.882;5.350;2024-02-26T00:13:53;6.50;99.90
18753;DHT22;9505;50.882;5.350;2024-02-26T00:16:19;6.50;99.90
18753;DHT22;9505;50.882;5.350;2024-02-26T00:18:44;6.40;99.90
18753;DHT22;9505;50.882;5.350;2024-02-26T00:21:10;6.40;99.90
18753;DHT22;9505;50.882;5.350;2024-02-26T00:23:36;6.40;99.90
18753;DHT22;9505;50.882;5.350;2024-02-26T00:26:01;6.30;99.90
18753;DHT22;9505;50.882;5.350;2024-02-26T00:28:27;6.40;99.90
18753;DHT22;9505;50.882;5.350;2024-02-26T00:30:54;6.30;99.90
18753;DHT22;9505;50.882;5.350;2024-02-26T00:33:22;6.30;99.90
18753;DHT22;9505;50.882;5.350;2024-02-26T00:35:48;6.30;99.90
18753;DHT22;9505;50.882;5.350;2024-02-26T00:38:14;6.20;99.90
18753;DHT22;9505;50.882;5.350;2024-02-26T00:40:39;6.20;99.90
18753;DHT22;9505;50.882;5.350;2024-02-26T00:43:06;6.20;99.90
18753;DHT22;9505;50.882;5.350;2024-02-26T00:45:32;6.20;99.90
18753;DHT22;9505;50.882;5.350;2024-02-26T00:47:58;6.20;99.90
18753;DHT22;9505;50.882;5.350;2024-02-26T00:50:26;6.20;99.90
18753;DHT22;9505;50.882;5.350;2024-02-26T00:52:52;6.20;99.90
18753;DHT22;9505;50.882;5.350;2024-02-26T00:55:17;6.10;99.90
18753;DHT22;9505;50.882;5.350;2024-02-26T00:57:43;6.10;99.90
18753;DHT22;9505;50.882;5.350;2024-02-26T01:00:09;6.10;99.90
18753;DHT22;9505;50.882;5.350;2024-02-26T01:02:35;6.10;99.90
18753;DHT22;9505;50.882;5.350;2024-02-26T01:05:00;6.10;99.90
18753;DHT22;9505;50.882;5.350;2024-02-26T01:07:26;6.10;99.90
18753;DHT22;9505;50.882;5.350;2024-02-26T01:09:52;6.10;99.90
18753;DHT22;9505;50.882;5.350;2024-02-26T01:12:17;6.10;99.90
18753;DHT22;9505;50.882;5.350;2024-02-26T01:14:43;6.10;99.90
18753;DHT22;9505;50.882;5.350;2024-02-26T01:17:08;6.20;99.90
18753;DHT22;9505;50.882;5.350;2024-02-26T01:19:34;6.20;99.90
18753;DHT22;9505;50.882;5.350;2024-02-26T01:21:59;6.10;99.90
18753;DHT22;9505;50.882;5.350;2024-02-26T01:24:25;6.20;99.90
18753;DHT22;9505;50.882;5.350;2024-02-26T01:26:51;6.20;99.90
18753;DHT22;9505;50.882;5.350;2024-02-26T01:29:16;6.20;99.90
18753;DHT22;9505;50.882;5.350;2024-02-26T01:31:42;6.20;99.90
18753;DHT22;9505;50.882;5.350;2024-02-26T01:34:08;6.30;99.90
18753;DHT22;9505;50.882;5.350;2024-02-26T01:36:33;6.20;99.90
18753;DHT22;9505;50.882;5.350;2024-02-26T01:38:59;6.20;99.90
18753;DHT22;9505;50.882;5.350;2024-02-26T01:41:25;6.20;99.90
18753;DHT22;9505;50.882;5.350;2024-02-26T01:43:51;6.20;99.90
18753;DHT22;9505;50.882;5.350;2024-02-26T01:46:17;6.10;99.90
18753;DHT22;9505;50.882;5.350;2024-02-26T01:48:44;6.10;99.90
18753;DHT22;9505;50.882;5.350;2024-02-26T01:51:12;6.10;99.90
18753;DHT22;9505;50.882;5.350;2024-02-26T01:53:39;6.10;99.90
18753;DHT22;9505;50.882;5.350;2024-02-26T01:56:06;6.10;99.90
18753;DHT22;9505;50.882;5.350;2024-02-26T01:58:32;6.10;99.90
18753;DHT22;9505;50.882;5.350;2024-02-26T02:00:59;6.10;99.90
18753;DHT22;9505;50.882;5.350;2024-02-26T02:03:26;6.10;99.90
18753;DHT22;9505;50.882;5.350;2024-02-26T02:05:52;6.10;99.90
18753;DHT22;9505;50.882;5.350;2024-02-26T02:08:18;6.10;99.90
18753;DHT22;9505;50.882;5.350;2024-02-26T02:10:44;6.10;99.90
18753;DHT22;9505;50.882;5.350;2024-02-26T02:13:13;6.20;99.90
18753;DHT22;9505;50.882;5.350;2024-02-26T02:15:39;6.20;99.90
18753;DHT22;9505;50.882;5.350;2024-02-26T02:18:05;6.20;99.90
18753;DHT22;9505;50.882;5.350;2024-02-26T02:20:35;6.20;99.90
18753;DHT22;9505;50.882;5.350;2024-02-26T02:23:01;6.20;99.90
18753;DHT22;9505;50.882;5.350;2024-02-26T02:25:27;6.20;99.90
18753;DHT22;9505;50.882;5.350;2024-02-26T02:27:56;6.20;99.90
18753;DHT22;9505;50.882;5.350;2024-02-26T02:30:28;6.20;99.90
18753;DHT22;9505;50.882;5.350;2024-02-26T02:32:55;6.20;99.90
18753;DHT22;9505;50.882;5.350;2024-02-26T02:35:20;6.20;99.90
18753;DHT22;9505;50.882;5.350;2024-02-26T02:37:46;6.20;99.90
18753;DHT22;9505;50.882;5.350;2024-02-26T02:40:12;6.30;99.90
18753;DHT22;9505;50.882;5.350;2024-02-26T02:42:37;6.20;99.90
18753;DHT22;9505;50.882;5.350;2024-02-26T02:45:03;6.30;99.90
18753;DHT22;9505;50.882;5.350;2024-02-26T02:47:29;6.20;99.90
18753;DHT22;9505;50.882;5.350;2024-02-26T02:49:54;6.20;99.90
18753;DHT22;9505;50.882;5.350;2024-02-26T02:52:20;6.20;99.90
18753;DHT22;9505;50.882;5.350;2024-02-26T02:54:46;6.20;99.90
18753;DHT22;9505;50.882;5.350;2024-02-26T02:57:12;6.20;99.90
18753;DHT22;9505;50.882;5.350;2024-02-26T02:59:39;6.10;99.90
18753;DHT22;9505;50.882;5.350;2024-02-26T03:02:04;6.10;99.90
18753;DHT22;9505;50.882;5.350;2024-02-26T03:04:30;6.10;99.90
18753;DHT22;9505;50.882;5.350;2024-02-26T03:06:56;6.10;99.90
18753;DHT22;9505;50.882;5.350;2024-02-26T03:09:21;6.00;99.90
18753;DHT22;9505;50.882;5.350;2024-02-26T03:11:47;6.10;99.90
18753;DHT22;9505;50.882;5.350;2024-02-26T03:14:12;6.00;99.90
18753;DHT22;9505;50.882;5.350;2024-02-26T03:16:38;6.10;99.90
18753;DHT22;9505;50.882;5.350;2024-02-26T03:19:04;6.10;99.90
18753;DHT22;9505;50.882;5.350;2024-02-26T03:21:29;6.00;99.90
18753;DHT22;9505;50.882;5.350;2024-02-26T03:23:55;6.00;99.90
18753;DHT22;9505;50.882;5.350;2024-02-26T03:26:20;6.10;99.90
18753;DHT22;9505;50.882;5.350;2024-02-26T03:28:47;6.10;99.90
18753;DHT22;9505;50.882;5.350;2024-02-26T03:31:12;6.10;99.90
18753;DHT22;9505;50.882;5.350;2024-02-26T03:33:38;6.10;99.90
18753;DHT22;9505;50.882;5.350;2024-02-26T03:36:04;6.10;99.90
18753;DHT22;9505;50.882;5.350;2024-02-26T03:38:30;6.00;99.90
18753;DHT22;9505;50.882;5.350;2024-02-26T03:40:56;6.10;99.90
18753;DHT22;9505;50.882;5.350;2024-02-26T03:43:21;6.10;99.90
18753;DHT22;9505;50.882;5.350;2024-02-26T03:45:47;6.00;99.90
18753;DHT22;9505;50.882;5.350;2024-02-26T03:48:12;6.10;99.90
18753;DHT22;9505;50.882;5.350;2024-02-26T03:50:38;6.10;99.90
18753;DHT22;9505;50.882;5.350;2024-02-26T03:53:04;6.10;99.90
18753;DHT22;9505;50.882;5.350;2024-02-26T03:55:30;6.10;99.90
18753;DHT22;9505;50.882;5.350;2024-02-26T03:57:55;6.10;99.90
18753;DHT22;9505;50.882;5.350;2024-02-26T04:00:21;6.10;99.90
18753;DHT22;9505;50.882;5.350;2024-02-26T04:02:47;6.00;99.90
18753;DHT22;9505;50.882;5.350;2024-02-26T04:05:13;6.10;99.90
18753;DHT22;9505;50.882;5.350;2024-02-26T04:07:40;6.10;99.90
18753;DHT22;9505;50.882;5.350;2024-02-26T04:10:10;6.10;99.90
18753;DHT22;9505;50.882;5.350;2024-02-26T04:12:37;6.10;99.90
18753;DHT22;9505;50.882;5.350;2024-02-26T04:15:03;6.10;99.90
18753;DHT22;9505;50.882;5.350;2024-02-26T04:17:30;6.00;99.90
18753;DHT22;9505;50.882;5.350;2024-02-26T04:19:55;5.90;99.90
18753;DHT22;9505;50.882;5.350;2024-02-26T04:22:21;6.00;99.90
18753;DHT22;9505;50.882;5.350;2024-02-26T04:24:46;6.00;99.90
18753;DHT22;9505;50.882;5.350;2024-02-26T04:27:12;6.00;99.90
18753;DHT22;9505;50.882;5.350;2024-02-26T04:29:38;6.00;99.90
18753;DHT22;9505;50.882;5.350;2024-02-26T04:32:03;6.10;99.90
18753;DHT22;9505;50.882;5.350;2024-02-26T04:34:30;6.10;99.90
18753;DHT22;9505;50.882;5.350;2024-02-26T04:36:55;6.10;99.90
18753;DHT22;9505;50.882;5.350;2024-02-26T04:39:21;6.10;99.90
18753;DHT22;9505;50.882;5.350;2024-02-26T04:41:46;6.10;99.90
18753;DHT22;9505;50.882;5.350;2024-02-26T04:44:12;6.10;99.90
18753;DHT22;9505;50.882;5.350;2024-02-26T04:46:38;6.00;99.90
18753;DHT22;9505;50.882;5.350;2024-02-26T04:49:03;6.00;99.90
18753;DHT22;9505;50.882;5.350;2024-02-26T04:51:29;6.00;99.90
18753;DHT22;9505;50.882;5.350;2024-02-26T04:53:54;6.00;99.90
18753;DHT22;9505;50.882;5.350;2024-02-26T04:56:23;6.00;99.90
18753;DHT22;9505;50.882;5.350;2024-02-26T04:58:49;6.10;99.90
18753;DHT22;9505;50.882;5.350;2024-02-26T05:01:15;6.00;99.90
18753;DHT22;9505;50.882;5.350;2024-02-26T05:03:42;6.00;99.90
18753;DHT22;9505;50.882;5.350;2024-02-26T05:06:08;6.10;99.90
18753;DHT22;9505;50.882;5.350;2024-02-26T05:08:34;6.00;99.90
18753;DHT22;9505;50.882;5.350;2024-02-26T05:11:01;6.00;99.90
18753;DHT22;9505;50.882;5.350;2024-02-26T05:13:28;6.00;99.90
18753;DHT22;9505;50.882;5.350;2024-02-26T05:15:54;6.00;99.90
18753;DHT22;9505;50.882;5.350;2024-02-26T05:18:20;6.00;99.90
18753;DHT22;9505;50.882;5.350;2024-02-26T05:20:45;6.00;99.90
18753;DHT22;9505;50.882;5.350;2024-02-26T05:23:11;6.00;99.90
18753;DHT22;9505;50.882;5.350;2024-02-26T05:25:37;6.00;99.90
18753;DHT22;9505;50.882;5.350;2024-02-26T05:28:03;6.10;99.90
18753;DHT22;9505;50.882;5.350;2024-02-26T05:30:28;6.00;99.90
18753;DHT22;9505;50.882;5.350;2024-02-26T05:32:54;6.00;99.90
18753;DHT22;9505;50.882;5.350;2024-02-26T05:35:20;6.00;99.90
18753;DHT22;9505;50.882;5.350;2024-02-26T05:37:45;6.00;99.90
18753;DHT22;9505;50.882;5.350;2024-02-26T05:40:11;6.10;99.90
18753;DHT22;9505;50.882;5.350;2024-02-26T05:42:37;6.10;99.90
18753;DHT22;9505;50.882;5.350;2024-02-26T05:45:03;6.10;99.90
18753;DHT22;9505;50.882;5.350;2024-02-26T05:47:34;6.00;99.90
18753;DHT22;9505;50.882;5.350;2024-02-26T05:50:03;6.10;99.90
18753;DHT22;9505;50.882;5.350;2024-02-26T05:52:29;6.10;99.90
18753;DHT22;9505;50.882;5.350;2024-02-26T05:54:56;6.10;99.90
18753;DHT22;9505;50.882;5.350;2024-02-26T05:57:21;6.10;99.90
18753;DHT22;9505;50.882;5.350;2024-02-26T05:59:47;6.00;99.90
18753;DHT22;9505;50.882;5.350;2024-02-26T06:02:13;6.10;99.90
18753;DHT22;9505;50.882;5.350;2024-02-26T06:04:38;6.10;99.90
18753;DHT22;9505;50.882;5.350;2024-02-26T06:07:04;6.10;99.90
18753;DHT22;9505;50.882;5.350;2024-02-26T06:09:30;6.00;99.90
18753;DHT22;9505;50.882;5.350;2024-02-26T06:11:56;6.00;99.90
18753;DHT22;9505;50.882;5.350;2024-02-26T06:14:21;6.00;99.90
18753;DHT22;9505;50.882;5.350;2024-02-26T06:16:47;6.00;99.90
18753;DHT22;9505;50.882;5.350;2024-02-26T06:19:13;5.90;99.90
18753;DHT22;9505;50.882;5.350;2024-02-26T06:21:39;6.00;99.90
18753;DHT22;9505;50.882;5.350;2024-02-26T06:24:04;6.00;99.90
18753;DHT22;9505;50.882;5.350;2024-02-26T06:26:30;6.00;99.90
18753;DHT22;9505;50.882;5.350;2024-02-26T06:28:56;5.90;99.90
18753;DHT22;9505;50.882;5.350;2024-02-26T06:31:22;5.90;99.90
18753;DHT22;9505;50.882;5.350;2024-02-26T06:33:49;5.80;99.90
18753;DHT22;9505;50.882;5.350;2024-02-26T06:36:15;5.80;99.90
18753;DHT22;9505;50.882;5.350;2024-02-26T06:38:41;5.80;99.90
18753;DHT22;9505;50.882;5.350;2024-02-26T06:41:07;5.80;99.90
18753;DHT22;9505;50.882;5.350;2024-02-26T06:43:32;5.80;99.90
18753;DHT22;9505;50.882;5.350;2024-02-26T06:45:58;5.80;99.90
18753;DHT22;9505;50.882;5.350;2024-02-26T06:48:24;5.80;99.90
18753;DHT22;9505;50.882;5.350;2024-02-26T06:50:50;5.80;99.90
18753;DHT22;9505;50.882;5.350;2024-02-26T06:53:15;5.80;99.90
18753;DHT22;9505;50.882;5.350;2024-02-26T06:55:42;5.90;99.90
18753;DHT22;9505;50.882;5.350;2024-02-26T06:58:08;6.00;99.90
18753;DHT22;9505;50.882;5.350;2024-02-26T07:00:33;5.90;99.90
18753;DHT22;9505;50.882;5.350;2024-02-26T07:02:59;5.90;99.90
18753;DHT22;9505;50.882;5.350;2024-02-26T07:05:24;5.80;99.90
18753;DHT22;9505;50.882;5.350;2024-02-26T07:07:50;5.80;99.90
18753;DHT22;9505;50.882;5.350;2024-02-26T07:10:17;5.70;99.90
18753;DHT22;9505;50.882;5.350;2024-02-26T07:12:42;5.80;99.90
18753;DHT22;9505;50.882;5.350;2024-02-26T07:15:09;5.80;99.90
18753;DHT22;9505;50.882;5.350;2024-02-26T07:17:35;5.80;99.90
18753;DHT22;9505;50.882;5.350;2024-02-26T07:20:00;5.80;99.90
18753;DHT22;9505;50.882;5.350;2024-02-26T07:22:26;5.80;99.90
18753;DHT22;9505;50.882;5.350;2024-02-26T07:24:52;5.80;99.90
18753;DHT22;9505;50.882;5.350;2024-02-26T07:27:20;5.80;99.90
18753;DHT22;9505;50.882;5.350;2024-02-26T07:29:46;5.80;99.90
18753;DHT22;9505;50.882;5.350;2024-02-26T07:32:12;5.70;99.90
18753;DHT22;9505;50.882;5.350;2024-02-26T07:34:38;5.80;99.90
18753;DHT22;9505;50.882;5.350;2024-02-26T07:37:07;5.70;99.90
18753;DHT22;9505;50.882;5.350;2024-02-26T07:39:33;5.70;99.90
18753;DHT22;9505;50.882;5.350;2024-02-26T07:41:58;5.70;99.90
18753;DHT22;9505;50.882;5.350;2024-02-26T07:44:24;5.70;99.90
18753;DHT22;9505;50.882;5.350;2024-02-26T07:46:50;5.70;99.90
18753;DHT22;9505;50.882;5.350;2024-02-26T07:49:15;5.70;99.90
18753;DHT22;9505;50.882;5.350;2024-02-26T07:51:41;5.70;99.90
18753;DHT22;9505;50.882;5.350;2024-02-26T07:54:07;5.70;99.90
18753;DHT22;9505;50.882;5.350;2024-02-26T07:56:33;5.70;99.90
18753;DHT22;9505;50.882;5.350;2024-02-26T07:58:59;5.70;99.90
18753;DHT22;9505;50.882;5.350;2024-02-26T08:01:24;5.70;99.90
18753;DHT22;9505;50.882;5.350;2024-02-26T08:03:55;5.70;99.90
18753;DHT22;9505;50.882;5.350;2024-02-26T08:06:21;5.80;99.90
18753;DHT22;9505;50.882;5.350;2024-02-26T08:08:47;5.80;99.90
18753;DHT22;9505;50.882;5.350;2024-02-26T08:11:14;5.80;99.90
18753;DHT22;9505;50.882;5.350;2024-02-26T08:13:41;5.80;99.90
18753;DHT22;9505;50.882;5.350;2024-02-26T08:16:06;5.80;99.90
18753;DHT22;9505;50.882;5.350;2024-02-26T08:18:32;5.80;99.90
18753;DHT22;9505;50.882;5.350;2024-02-26T08:20:57;5.90;99.90
18753;DHT22;9505;50.882;5.350;2024-02-26T08:23:23;5.90;99.90
18753;DHT22;9505;50.882;5.350;2024-02-26T08:25:49;5.90;99.90
18753;DHT22;9505;50.882;5.350;2024-02-26T08:28:14;6.00;99.90
18753;DHT22;9505;50.882;5.350;2024-02-26T08:30:43;5.90;99.90
18753;DHT22;9505;50.882;5.350;2024-02-26T08:33:09;5.90;99.90
18753;DHT22;9505;50.882;5.350;2024-02-26T08:35:35;5.90;99.90
18753;DHT22;9505;50.882;5.350;2024-02-26T08:38:01;6.00;99.90
18753;DHT22;9505;50.882;5.350;2024-02-26T08:40:28;5.90;99.90
18753;DHT22;9505;50.882;5.350;2024-02-26T08:42:53;5.90;99.90
18753;DHT22;9505;50.882;5.350;2024-02-26T08:45:19;5.90;99.90
18753;DHT22;9505;50.882;5.350;2024-02-26T08:47:45;5.90;99.90
18753;DHT22;9505;50.882;5.350;2024-02-26T08:50:11;5.80;99.90
18753;DHT22;9505;50.882;5.350;2024-02-26T08:52:38;5.90;99.90
18753;DHT22;9505;50.882;5.350;2024-02-26T08:55:04;5.90;99.90
18753;DHT22;9505;50.882;5.350;2024-02-26T08:57:31;6.00;99.90
18753;DHT22;9505;50.882;5.350;2024-02-26T08:59:59;5.90;99.90
18753;DHT22;9505;50.882;5.350;2024-02-26T09:02:25;5.80;99.90
18753;DHT22;9505;50.882;5.350;2024-02-26T09:04:51;5.80;99.90
18753;DHT22;9505;50.882;5.350;2024-02-26T09:07:19;5.80;99.90
18753;DHT22;9505;50.882;5.350;2024-02-26T09:09:45;5.90;99.90
18753;DHT22;9505;50.882;5.350;2024-02-26T09:12:11;5.90;99.90
18753;DHT22;9505;50.882;5.350;2024-02-26T09:14:36;6.00;99.90
18753;DHT22;9505;50.882;5.350;2024-02-26T09:17:02;6.10;99.90
18753;DHT22;9505;50.882;5.350;2024-02-26T09:19:28;6.00;99.90
18753;DHT22;9505;50.882;5.350;2024-02-26T09:21:53;6.10;99.90
18753;DHT22;9505;50.882;5.350;2024-02-26T09:24:23;6.20;99.90
18753;DHT22;9505;50.882;5.350;2024-02-26T09:26:49;6.20;99.90
18753;DHT22;9505;50.882;5.350;2024-02-26T09:29:15;6.20;99.90
18753;DHT22;9505;50.882;5.350;2024-02-26T09:31:41;6.10;99.90
18753;DHT22;9505;50.882;5.350;2024-02-26T09:34:07;6.10;99.90
18753;DHT22;9505;50.882;5.350;2024-02-26T09:36:36;6.10;99.90
18753;DHT22;9505;50.882;5.350;2024-02-26T09:39:01;6.20;99.90
18753;DHT22;9505;50.882;5.350;2024-02-26T09:41:28;6.20;99.90
18753;DHT22;9505;50.882;5.350;2024-02-26T09:43:58;6.20;99.90
18753;DHT22;9505;50.882;5.350;2024-02-26T09:46:27;6.20;99.90
18753;DHT22;9505;50.882;5.350;2024-02-26T09:48:54;6.20;99.90
18753;DHT22;9505;50.882;5.350;2024-02-26T09:51:22;6.20;99.90
18753;DHT22;9505;50.882;5.350;2024-02-26T09:53:51;6.20;99.90
18753;DHT22;9505;50.882;5.350;2024-02-26T09:56:17;6.30;99.90
18753;DHT22;9505;50.882;5.350;2024-02-26T09:58:43;6.30;99.90
18753;DHT22;9505;50.882;5.350;2024-02-26T10:01:16;6.30;99.90
18753;DHT22;9505;50.882;5.350;2024-02-26T10:03:42;6.20;99.90
18753;DHT22;9505;50.882;5.350;2024-02-26T10:06:10;6.20;99.90
18753;DHT22;9505;50.882;5.350;2024-02-26T10:08:36;6.30;99.90
18753;DHT22;9505;50.882;5.350;2024-02-26T10:11:03;6.30;99.90
18753;DHT22;9505;50.882;5.350;2024-02-26T10:13:29;6.40;99.90
18753;DHT22;9505;50.882;5.350;2024-02-26T10:15:55;6.30;99.90
18753;DHT22;9505;50.882;5.350;2024-02-26T10:18:22;6.30;99.90
18753;DHT22;9505;50.882;5.350;2024-02-26T10:21:02;6.40;99.90
18753;DHT22;9505;50.882;5.350;2024-02-26T10:23:29;6.40;99.90
18753;DHT22;9505;50.882;5.350;2024-02-26T10:25:55;6.40;99.90
18753;DHT22;9505;50.882;5.350;2024-02-26T10:28:22;6.40;99.90
18753;DHT22;9505;50.882;5.350;2024-02-26T10:30:47;6.30;99.90
18753;DHT22;9505;50.882;5.350;2024-02-26T10:33:13;6.30;99.90
18753;DHT22;9505;50.882;5.350;2024-02-26T10:35:40;6.30;99.90
18753;DHT22;9505;50.882;5.350;2024-02-26T10:38:10;6.30;99.90
18753;DHT22;9505;50.882;5.350;2024-02-26T10:40:36;6.30;99.90
18753;DHT22;9505;50.882;5.350;2024-02-26T10:43:02;6.30;99.90
18753;DHT22;9505;50.882;5.350;2024-02-26T10:45:28;6.20;99.90
18753;DHT22;9505;50.882;5.350;2024-02-26T10:47:53;6.20;99.90
18753;DHT22;9505;50.882;5.350;2024-02-26T10:50:19;6.40;99.90
18753;DHT22;9505;50.882;5.350;2024-02-26T10:52:45;6.60;99.90
18753;DHT22;9505;50.882;5.350;2024-02-26T10:55:16;6.50;99.90
18753;DHT22;9505;50.882;5.350;2024-02-26T10:57:45;6.50;99.90
18753;DHT22;9505;50.882;5.350;2024-02-26T11:00:14;6.40;99.90
18753;DHT22;9505;50.882;5.350;2024-02-26T11:02:41;6.40;99.90
18753;DHT22;9505;50.882;5.350;2024-02-26T11:05:07;6.30;99.90
18753;DHT22;9505;50.882;5.350;2024-02-26T11:07:34;6.30;99.90
18753;DHT22;9505;50.882;5.350;2024-02-26T11:10:03;6.30;99.90
18753;DHT22;9505;50.882;5.350;2024-02-26T11:12:31;6.30;99.90
18753;DHT22;9505;50.882;5.350;2024-02-26T11:14:57;6.40;99.90
18753;DHT22;9505;50.882;5.350;2024-02-26T11:17:27;6.30;99.90
18753;DHT22;9505;50.882;5.350;2024-02-26T11:19:56;6.40;99.90
18753;DHT22;9505;50.882;5.350;2024-02-26T11:22:23;6.50;99.90
18753;DHT22;9505;50.882;5.350;2024-02-26T11:24:52;6.50;99.90
18753;DHT22;9505;50.882;5.350;2024-02-26T11:27:19;6.60;99.90
18753;DHT22;9505;50.882;5.350;2024-02-26T11:29:48;6.60;99.90
18753;DHT22;9505;50.882;5.350;2024-02-26T11:32:15;6.70;99.90
18753;DHT22;9505;50.882;5.350;2024-02-26T11:34:42;6.80;99.90
18753;DHT22;9505;50.882;5.350;2024-02-26T11:37:12;6.70;99.90
18753;DHT22;9505;50.882;5.350;2024-02-26T11:39:40;6.90;99.90
18753;DHT22;9505;50.882;5.350;2024-02-26T11:42:09;6.90;99.90
18753;DHT22;9505;50.882;5.350;2024-02-26T11:44:36;6.90;99.90
18753;DHT22;9505;50.882;5.350;2024-02-26T11:47:12;7.00;99.90
18753;DHT22;9505;50.882;5.350;2024-02-26T11:49:38;7.00;99.90
18753;DHT22;9505;50.882;5.350;2024-02-26T11:52:08;6.90;99.90
18753;DHT22;9505;50.882;5.350;2024-02-26T11:54:54;7.10;99.90
18753;DHT22;9505;50.882;5.350;2024-02-26T11:57:27;7.30;99.90
18753;DHT22;9505;50.882;5.350;2024-02-26T11:59:55;7.30;99.90
18753;DHT22;9505;50.882;5.350;2024-02-26T12:02:51;7.30;99.90
18753;DHT22;9505;50.882;5.350;2024-02-26T12:05:24;7.20;99.90
18753;DHT22;9505;50.882;5.350;2024-02-26T12:07:52;7.30;99.90
18753;DHT22;9505;50.882;5.350;2024-02-26T12:10:25;7.10;99.90
18753;DHT22;9505;50.882;5.350;2024-02-26T12:15:23;7.10;99.90
18753;DHT22;9505;50.882;5.350;2024-02-26T12:17:49;7.20;99.90
18753;DHT22;9505;50.882;5.350;2024-02-26T12:20:17;7.20;99.90
18753;DHT22;9505;50.882;5.350;2024-02-26T12:22:46;7.30;99.90
18753;DHT22;9505;50.882;5.350;2024-02-26T12:25:14;7.40;99.90
18753;DHT22;9505;50.882;5.350;2024-02-26T12:27:39;7.50;99.90
18753;DHT22;9505;50.882;5.350;2024-02-26T12:30:05;7.70;99.90
18753;DHT22;9505;50.882;5.350;2024-02-26T12:32:32;7.80;99.90
18753;DHT22;9505;50.882;5.350;2024-02-26T12:34:58;7.70;99.90
18753;DHT22;9505;50.882;5.350;2024-02-26T12:37:25;7.70;99.90
18753;DHT22;9505;50.882;5.350;2024-02-26T12:39:51;7.90;99.90
18753;DHT22;9505;50.882;5.350;2024-02-26T12:42:17;7.90;99.90
18753;DHT22;9505;50.882;5.350;2024-02-26T12:44:45;8.00;99.90
18753;DHT22;9505;50.882;5.350;2024-02-26T12:47:11;8.10;99.90
18753;DHT22;9505;50.882;5.350;2024-02-26T12:49:42;8.10;99.90
18753;DHT22;9505;50.882;5.350;2024-02-26T12:52:08;8.10;99.90
18753;DHT22;9505;50.882;5.350;2024-02-26T12:54:34;8.00;99.90
18753;DHT22;9505;50.882;5.350;2024-02-26T12:57:05;7.90;99.90
18753;DHT22;9505;50.882;5.350;2024-02-26T12:59:33;7.80;99.90
18753;DHT22;9505;50.882;5.350;2024-02-26T13:02:00;7.50;99.90
18753;DHT22;9505;50.882;5.350;2024-02-26T13:04:29;7.40;99.90
18753;DHT22;9505;50.882;5.350;2024-02-26T13:06:55;7.50;99.90
18753;DHT22;9505;50.882;5.350;2024-02-26T13:09:21;7.40;99.90
18753;DHT22;9505;50.882;5.350;2024-02-26T13:11:56;7.30;99.90
18753;DHT22;9505;50.882;5.350;2024-02-26T13:14:21;7.10;99.90
18753;DHT22;9505;50.882;5.350;2024-02-26T13:17:05;7.10;99.90
18753;DHT22;9505;50.882;5.350;2024-02-26T13:19:31;7.20;99.90
18753;DHT22;9505;50.882;5.350;2024-02-26T13:22:06;7.20;99.90
18753;DHT22;9505;50.882;5.350;2024-02-26T13:24:33;7.10;99.90
18753;DHT22;9505;50.882;5.350;2024-02-26T13:26:59;6.90;99.90
18753;DHT22;9505;50.882;5.350;2024-02-26T13:29:25;6.80;99.90
18753;DHT22;9505;50.882;5.350;2024-02-26T13:31:57;6.80;99.90
18753;DHT22;9505;50.882;5.350;2024-02-26T13:34:27;6.80;99.90
18753;DHT22;9505;50.882;5.350;2024-02-26T13:36:54;6.80;99.90
18753;DHT22;9505;50.882;5.350;2024-02-26T13:39:24;6.80;99.90
18753;DHT22;9505;50.882;5.350;2024-02-26T13:41:51;6.90;99.90
18753;DHT22;9505;50.882;5.350;2024-02-26T13:44:17;6.90;99.90
18753;DHT22;9505;50.882;5.350;2024-02-26T13:46:43;6.80;99.90
18753;DHT22;9505;50.882;5.350;2024-02-26T13:49:09;6.70;99.90
18753;DHT22;9505;50.882;5.350;2024-02-26T13:51:36;6.60;99.90
18753;DHT22;9505;50.882;5.350;2024-02-26T13:54:02;6.50;99.90
18753;DHT22;9505;50.882;5.350;2024-02-26T13:56:28;6.50;99.90
18753;DHT22;9505;50.882;5.350;2024-02-26T13:58:54;6.60;99.90
18753;DHT22;9505;50.882;5.350;2024-02-26T14:01:19;6.70;99.90
18753;DHT22;9505;50.882;5.350;2024-02-26T14:03:45;6.70;99.90
18753;DHT22;9505;50.882;5.350;2024-02-26T14:06:11;6.70;99.90
18753;DHT22;9505;50.882;5.350;2024-02-26T14:08:36;6.80;99.90
18753;DHT22;9505;50.882;5.350;2024-02-26T14:11:02;6.70;99.90
18753;DHT22;9505;50.882;5.350;2024-02-26T14:13:28;6.60;99.90
18753;DHT22;9505;50.882;5.350;2024-02-26T14:15:54;6.60;99.90
18753;DHT22;9505;50.882;5.350;2024-02-26T14:18:19;6.50;99.90
18753;DHT22;9505;50.882;5.350;2024-02-26T14:20:45;6.40;99.90
18753;DHT22;9505;50.882;5.350;2024-02-26T14:23:10;6.50;99.90
18753;DHT22;9505;50.882;5.350;2024-02-26T14:25:36;6.30;99.90
18753;DHT22;9505;50.882;5.350;2024-02-26T14:28:02;6.30;99.90
18753;DHT22;9505;50.882;5.350;2024-02-26T14:30:28;6.30;99.90
18753;DHT22;9505;50.882;5.350;2024-02-26T14:32:54;6.30;99.90
18753;DHT22;9505;50.882;5.350;2024-02-26T14:35:20;6.30;99.90
18753;DHT22;9505;50.882;5.350;2024-02-26T14:37:46;6.40;99.90
18753;DHT22;9505;50.882;5.350;2024-02-26T14:40:13;6.50;99.90
18753;DHT22;9505;50.882;5.350;2024-02-26T14:42:40;6.30;99.90
18753;DHT22;9505;50.882;5.350;2024-02-26T14:45:06;6.30;99.90
18753;DHT22;9505;50.882;5.350;2024-02-26T14:47:37;6.30;99.90
18753;DHT22;9505;50.882;5.350;2024-02-26T14:50:03;6.30;99.90
18753;DHT22;9505;50.882;5.350;2024-02-26T14:52:29;6.20;99.90
18753;DHT22;9505;50.882;5.350;2024-02-26T14:54:54;6.30;99.90
18753;DHT22;9505;50.882;5.350;2024-02-26T14:57:20;6.40;99.90
18753;DHT22;9505;50.882;5.350;2024-02-26T14:59:46;6.40;99.90
18753;DHT22;9505;50.882;5.350;2024-02-26T15:02:11;6.40;99.90
18753;DHT22;9505;50.882;5.350;2024-02-26T15:04:37;6.50;99.90
18753;DHT22;9505;50.882;5.350;2024-02-26T15:07:03;6.50;99.90
18753;DHT22;9505;50.882;5.350;2024-02-26T15:09:29;6.50;99.90
18753;DHT22;9505;50.882;5.350;2024-02-26T15:11:55;6.50;99.90
18753;DHT22;9505;50.882;5.350;2024-02-26T15:14:23;6.50;99.90
18753;DHT22;9505;50.882;5.350;2024-02-26T15:16:48;6.60;99.90
18753;DHT22;9505;50.882;5.350;2024-02-26T15:19:14;6.60;99.90
18753;DHT22;9505;50.882;5.350;2024-02-26T15:21:44;6.60;99.90
18753;DHT22;9505;50.882;5.350;2024-02-26T15:24:10;6.50;99.90
18753;DHT22;9505;50.882;5.350;2024-02-26T15:26:37;6.60;99.90
18753;DHT22;9505;50.882;5.350;2024-02-26T15:29:03;6.70;99.90
18753;DHT22;9505;50.882;5.350;2024-02-26T15:31:28;6.80;99.90
18753;DHT22;9505;50.882;5.350;2024-02-26T15:33:54;6.80;99.90
18753;DHT22;9505;50.882;5.350;2024-02-26T15:36:19;6.90;99.90
18753;DHT22;9505;50.882;5.350;2024-02-26T15:38:45;6.80;99.90
18753;DHT22;9505;50.882;5.350;2024-02-26T15:41:12;6.80;99.90
18753;DHT22;9505;50.882;5.350;2024-02-26T15:43:38;6.70;99.90
18753;DHT22;9505;50.882;5.350;2024-02-26T15:46:05;6.70;99.90
18753;DHT22;9505;50.882;5.350;2024-02-26T15:48:33;6.70;99.90
18753;DHT22;9505;50.882;5.350;2024-02-26T15:50:59;6.70;99.90
18753;DHT22;9505;50.882;5.350;2024-02-26T15:53:25;6.80;99.90
18753;DHT22;9505;50.882;5.350;2024-02-26T15:55:50;6.80;99.90
18753;DHT22;9505;50.882;5.350;2024-02-26T15:58:16;6.80;99.90
18753;DHT22;9505;50.882;5.350;2024-02-26T16:00:42;6.70;99.90